Impacts TAF Board INFO
FOR SITUATIONAL AWARENESS. NOT TO BE USED FOR FLIGHT PLANNING PURPOSES.
IDs:

KPIT - Pittsburgh Intl, PA, US

Issued at 2056 UTC 21 Nov 2017
Updated at 2120 UTC 21 Nov 2017
Potential Impact None Slight Moderate High
Time<<22/22Z 22/23Z 23/00Z 23/01Z 23/02Z 23/03Z 23/04Z 23/05Z 23/06Z 23/07Z 23/08Z 23/09Z 23/10Z
Type PRVL PRVL
VIS >6 >6
CIG 25 25
Cover BKN BKN
FltCat MVFR MVFR
WX -- --
WDir 300 300
WSpd 7 7
WGst -- --

Raw TAF
KPIT 212056Z 2121/2224 22012G22KT P6SM SCT200
  FM212300 21009KT P6SM BKN120
  FM220700 29008KT P6SM -SHRA OVC015
  FM221000 30007KT 5SM -SHSN BKN020
  FM221400 30007KT P6SM BKN025


METAR Board
Radar Display
Forecast Discussion

FOR SITUATIONAL AWARENESS. NOT TO BE USED FOR FLIGHT PLANNING PURPOSES.